Sneads Ferry, NC

11:19 AM EDT on August 04, 2015 (GMT -0400)
Chadwick Shores | | Change Station
CLOSE
Current Station
Personal Weather Station
Location: Sneads Ferry, NC
Elevation: 10 ft
Nearby Weather Stations

Elev 10 ft 34.54 °N, 77.37 °W | Updated 14 minutes ago

Overcast
Overcast
79.7 °F
Feels Like 84 °F
N
2.0
Wind Variable Wind from SSE
Gusts 13.0 mph

Today
High -- | Low -- °F
--% Chance of Precip.
Yesterday
High -- | Low -- °F
Precip. -- in
6:22 AM 8:09 PM
Waning Gibbous, 77% visible
Pressure 30.03 in
Visibility 7.0 miles
Clouds Scattered Clouds 5500 ft
Mostly Cloudy 7500 ft
Overcast 11000 ft
Heat Index 84 °F
Dew Point 76 °F
Humidity 87%
Rainfall 0.00 in
Snow Depth Not available.
UV 3 out of 12
Pollen 1.30 out of 12
Air Quality Not available.
Flu Activity Not available.
METAR KNCA 041456Z 13003KT 7SM -RA SCT055 BKN075 OVC110 26/23 A3002 RMK AO2 RAB1357E06B41 TSB08E39 SLP169 P0000 60003 T02610233 53006

More Conditions Fewer Conditions

Pressure 30.03 in
Visibility 7.0 miles
Clouds Scattered Clouds 5500 ft
Mostly Cloudy 7500 ft
Overcast 11000 ft
Heat Index 84 °F
Dew Point 76 °F
Humidity 87%
Rainfall 0.00 in
Snow Depth Not available.
UV 3 out of 12
Pollen 1.30 out of 12
Air Quality Not available.
Flu Activity Not available.
METAR KNCA 041456Z 13003KT 7SM -RA SCT055 BKN075 OVC110 26/23 A3002 RMK AO2 RAB1357E06B41 TSB08E39 SLP169 P0000 60003 T02610233 53006

More Conditions Fewer Conditions

10-Day Weather Forecast

×

Almanac

Astronomy

Aug. 04, 2015 Rise Set
Actual Time
Civil Twilight
Nautical Twilight
Astronomical Twilight
Moon
Length of Visible Light
Length of Day
Tomorrow will be .
, % of the Moon is Illuminated

Today's Extremes

State Highs State Lows

Community

WunderPhotos

Upload Photos

1,843,905 photos uploaded!

WunderBlogs® & News

Nearby

Air Quality

  Air Quality AQ Index Pollutant
Not available.

Snow Depth

Station Depth Elevation

Earthquake Activity

City Distance Mag. Time & Date
Minimum magnitude displayed is 2.5.

Coastal Water Temperatures

Place Temperature

Stations

Nearby Weather Stations

Station Location Temp. Windchill Dew Point Humidity Wind Precip. Elev Updated Type